createdAt,value
2023-03-28T00:00:13.836Z,6.75
2023-03-28T00:02:42.411Z,5.00
2023-03-28T00:05:09.608Z,9.00
2023-03-28T00:07:36.517Z,7.75
2023-03-28T00:10:03.889Z,6.00
2023-03-28T00:12:30.764Z,8.00
2023-03-28T00:14:57.757Z,6.25
2023-03-28T00:17:25.340Z,6.50
2023-03-28T00:19:53.597Z,6.25
2023-03-28T00:22:21.284Z,5.25
2023-03-28T00:24:48.939Z,6.25
2023-03-28T00:27:16.175Z,6.00
2023-03-28T00:29:43.295Z,9.75
2023-03-28T00:32:11.123Z,5.25
2023-03-28T00:34:37.967Z,5.00
2023-03-28T00:37:05.570Z,6.75
2023-03-28T00:39:32.471Z,6.00
2023-03-28T00:42:03.469Z,3.00
2023-03-28T00:44:51.932Z,5.00
2023-03-28T00:47:27.570Z,6.00
2023-03-28T00:49:59.237Z,5.00
2023-03-28T00:52:30.402Z,3.00
2023-03-28T00:54:58.920Z,5.00
2023-03-28T00:57:28.127Z,2.00
2023-03-28T00:59:55.547Z,2.00
2023-03-28T01:02:23.122Z,5.25
2023-03-28T01:04:57.916Z,8.00
2023-03-28T01:07:29.174Z,5.25
2023-03-28T01:09:56.218Z,3.00
2023-03-28T01:12:23.937Z,4.50
2023-03-28T01:14:51.777Z,3.25
2023-03-28T01:17:18.713Z,4.75
2023-03-28T01:19:50.474Z,8.25
2023-03-28T01:22:23.055Z,3.50
2023-03-28T01:25:14.853Z,5.50
2023-03-28T01:27:52.105Z,5.75
2023-03-28T01:31:08.257Z,5.00
2023-03-28T01:33:57.461Z,5.50
2023-03-28T01:37:14.983Z,5.50
2023-03-28T01:40:06.423Z,5.00
2023-03-28T01:42:41.809Z,5.50
2023-03-28T01:45:22.687Z,6.00
2023-03-28T01:47:53.927Z,5.50
2023-03-28T01:50:26.157Z,4.75
2023-03-28T01:53:11.371Z,3.25
2023-03-28T01:55:48.898Z,5.00
2023-03-28T01:58:46.535Z,5.25
2023-03-28T02:01:30.325Z,7.00
2023-03-28T02:04:06.425Z,5.00
2023-03-28T02:06:57.048Z,3.25
2023-03-28T02:09:29.757Z,3.00
2023-03-28T02:12:17.857Z,5.00
2023-03-28T02:15:08.643Z,5.00
2023-03-28T02:17:52.988Z,5.75
2023-03-28T02:20:41.610Z,3.50
2023-03-28T02:23:23.893Z,3.00
2023-03-28T02:26:24.608Z,6.00
2023-03-28T02:28:59.631Z,6.00
2023-03-28T02:31:35.069Z,6.00
2023-03-28T02:34:03.232Z,7.00
2023-03-28T02:36:38.918Z,6.75
2023-03-28T02:39:27.299Z,5.00
2023-03-28T02:41:59.700Z,6.00
2023-03-28T02:44:32.684Z,7.25
2023-03-28T02:47:23.995Z,6.50
2023-03-28T02:50:02.833Z,4.75
2023-03-28T02:52:59.818Z,6.50
2023-03-28T02:55:39.411Z,5.00
2023-03-28T02:58:21.662Z,5.00
2023-03-28T03:00:49.323Z,6.50
2023-03-28T03:03:16.844Z,6.00
2023-03-28T03:05:44.050Z,5.75
2023-03-28T03:08:11.906Z,6.00
2023-03-28T03:10:38.694Z,5.25
2023-03-28T03:13:05.616Z,4.00
2023-03-28T03:15:32.545Z,5.00
2023-03-28T03:18:06.050Z,6.00
2023-03-28T03:20:34.513Z,9.25
2023-03-28T03:23:03.271Z,5.25
2023-03-28T03:25:33.604Z,5.00
2023-03-28T03:28:27.213Z,6.50
2023-03-28T03:30:54.651Z,12.50
2023-03-28T03:33:41.651Z,8.00
2023-03-28T03:36:12.726Z,10.00
2023-03-28T03:38:40.706Z,6.00
2023-03-28T03:41:09.040Z,6.00
2023-03-28T03:43:36.085Z,6.00
2023-03-28T03:46:03.194Z,4.00
2023-03-28T03:48:30.353Z,5.00
2023-03-28T03:50:59.000Z,8.75
2023-03-28T03:53:26.130Z,6.50
2023-03-28T03:56:02.515Z,10.00
2023-03-28T03:58:40.832Z,4.00
2023-03-28T04:01:14.120Z,8.25
2023-03-28T04:03:42.583Z,9.25
2023-03-28T04:06:11.953Z,6.75
2023-03-28T04:08:38.823Z,6.00
2023-03-28T04:11:07.953Z,6.00
2023-03-28T04:13:39.223Z,8.00
2023-03-28T04:16:08.001Z,10.00
2023-03-28T04:18:40.651Z,8.50
2023-03-28T04:21:09.851Z,7.00
2023-03-28T04:23:43.877Z,5.75
2023-03-28T04:26:50.151Z,8.00
2023-03-28T04:29:19.313Z,8.00
2023-03-28T04:32:06.666Z,10.00
2023-03-28T04:34:56.736Z,11.25
2023-03-28T04:37:24.856Z,7.25
2023-03-28T04:39:55.814Z,9.00
2023-03-28T04:42:45.988Z,19.25
2023-03-28T04:45:19.251Z,10.50
2023-03-28T04:47:48.755Z,26.75
2023-03-28T04:50:17.927Z,23.25
2023-03-28T04:52:44.949Z,20.75
2023-03-28T04:55:12.286Z,28.00
2023-03-28T04:57:40.402Z,13.50
2023-03-28T05:00:10.414Z,12.50
2023-03-28T05:02:56.804Z,15.25
2023-03-28T05:05:26.265Z,7.00
2023-03-28T05:07:53.668Z,15.50
2023-03-28T05:10:21.980Z,10.00
2023-03-28T05:12:50.657Z,14.75
2023-03-28T05:15:22.537Z,6.00
2023-03-28T05:18:09.154Z,17.50
2023-03-28T05:20:37.234Z,16.50
2023-03-28T05:23:06.226Z,7.00
2023-03-28T05:25:36.585Z,15.25
2023-03-28T05:28:04.456Z,6.00
2023-03-28T05:30:32.804Z,7.00
2023-03-28T05:33:00.676Z,10.50
2023-03-28T05:35:29.281Z,6.00
2023-03-28T05:37:57.283Z,9.75
2023-03-28T05:40:24.188Z,37.25
2023-03-28T05:42:51.371Z,9.00
2023-03-28T05:45:20.463Z,18.00
2023-03-28T05:48:06.238Z,10.00
2023-03-28T05:50:36.475Z,10.00
2023-03-28T05:53:06.679Z,14.00
2023-03-28T05:55:35.697Z,11.00
2023-03-28T05:58:04.127Z,19.50
2023-03-28T06:00:37.494Z,13.50
2023-03-28T06:03:07.622Z,11.25
2023-03-28T06:05:39.473Z,20.00
2023-03-28T06:08:16.296Z,16.25
2023-03-28T06:10:43.294Z,19.25
2023-03-28T06:13:30.745Z,9.00
2023-03-28T06:15:58.071Z,15.00
2023-03-28T06:18:31.286Z,23.75
2023-03-28T06:20:58.383Z,14.50
2023-03-28T06:23:25.556Z,15.00
2023-03-28T06:25:52.404Z,14.25
2023-03-28T06:28:20.735Z,20.00
2023-03-28T06:31:16.621Z,24.00
2023-03-28T06:33:44.704Z,24.75
2023-03-28T06:36:12.259Z,10.75
2023-03-28T06:38:39.326Z,8.00
2023-03-28T06:41:07.063Z,7.50
2023-03-28T06:43:35.443Z,22.50
2023-03-28T06:46:07.468Z,21.00
2023-03-28T06:48:36.726Z,7.75
2023-03-28T06:51:21.994Z,14.25
2023-03-28T06:53:49.167Z,13.25
2023-03-28T06:56:20.554Z,12.50
2023-03-28T06:58:47.515Z,6.00
2023-03-28T07:01:17.877Z,11.00
2023-03-28T07:04:06.289Z,15.75
2023-03-28T07:06:34.851Z,17.00
2023-03-28T07:09:03.423Z,10.75
2023-03-28T07:11:41.934Z,10.00
2023-03-28T07:14:09.529Z,7.00
2023-03-28T07:16:36.399Z,34.75
2023-03-28T07:19:03.726Z,26.75
2023-03-28T07:21:33.968Z,13.25
2023-03-28T07:24:02.898Z,16.00
2023-03-28T07:26:40.076Z,18.75
2023-03-28T07:29:08.704Z,11.00
2023-03-28T07:31:35.634Z,12.00
2023-03-28T07:34:02.774Z,18.75
2023-03-28T07:36:29.765Z,18.00
2023-03-28T07:39:05.227Z,15.00
2023-03-28T07:41:32.048Z,7.50
2023-03-28T07:43:59.280Z,9.50
2023-03-28T07:46:26.424Z,20.25
2023-03-28T07:48:55.654Z,38.25
2023-03-28T07:51:22.515Z,14.25
2023-03-28T07:53:49.288Z,30.00
2023-03-28T07:56:16.262Z,12.75
2023-03-28T07:59:02.039Z,19.25
2023-03-28T08:01:28.990Z,7.00
2023-03-28T08:04:00.939Z,70.50
2023-03-28T08:06:38.440Z,57.50
2023-03-28T08:09:10.138Z,9.00
2023-03-28T08:11:43.957Z,24.25
2023-03-28T08:14:13.648Z,17.75
2023-03-28T08:16:41.400Z,6.00
2023-03-28T08:19:11.645Z,9.00
2023-03-28T08:22:02.722Z,7.33
2023-03-28T08:24:36.156Z,18.75
2023-03-28T08:27:11.958Z,7.33
2023-03-28T08:29:39.921Z,6.33
2023-03-28T08:32:07.756Z,11.75
2023-03-28T08:34:35.509Z,8.67
2023-03-28T08:37:08.505Z,8.33
2023-03-28T08:39:37.447Z,34.75
2023-03-28T08:42:22.777Z,12.25
2023-03-28T08:45:01.303Z,32.50
2023-03-28T08:47:33.150Z,12.00
2023-03-28T08:50:22.115Z,3.00
2023-03-28T08:52:49.270Z,16.25
2023-03-28T08:55:49.783Z,4.25
2023-03-28T08:58:21.618Z,4.25
2023-03-28T09:00:50.755Z,10.00
2023-03-28T09:03:20.925Z,4.00
2023-03-28T09:06:13.513Z,9.50
2023-03-28T09:08:52.341Z,6.00
2023-03-28T09:11:54.325Z,10.33
2023-03-28T09:14:30.252Z,14.00
2023-03-28T09:17:18.046Z,15.00
2023-03-28T09:20:19.433Z,3.67
2023-03-28T09:23:16.504Z,6.67
2023-03-28T09:26:10.160Z,4.00
2023-03-28T09:28:57.570Z,30.50
2023-03-28T09:31:31.042Z,39.00
2023-03-28T09:34:02.407Z,5.00
2023-03-28T09:36:49.039Z,10.00
2023-03-28T09:39:33.418Z,7.00
2023-03-28T09:42:17.336Z,2.33
2023-03-28T09:45:07.920Z,3.00
2023-03-28T09:47:53.461Z,7.00
2023-03-28T09:50:23.908Z,11.00
2023-03-28T09:52:58.078Z,6.33
2023-03-28T09:55:28.151Z,41.75
2023-03-28T09:58:08.317Z,22.00
2023-03-28T10:01:30.592Z,34.00
2023-03-28T10:04:38.086Z,14.75
2023-03-28T10:07:43.324Z,27.75
2023-03-28T10:10:23.583Z,14.00
2023-03-28T10:13:13.118Z,4.67
2023-03-28T10:15:50.131Z,4.00
2023-03-28T10:18:21.965Z,2.00
2023-03-28T10:21:17.404Z,5.00
2023-03-28T10:23:58.093Z,7.67
2023-03-28T10:26:26.725Z,4.33
2023-03-28T10:28:58.348Z,8.67
2023-03-28T10:31:31.917Z,47.50
2023-03-28T10:34:33.659Z,3.33
2023-03-28T10:37:31.799Z,6.00
2023-03-28T10:40:22.809Z,14.25
2023-03-28T10:43:13.568Z,7.33
2023-03-28T10:45:45.534Z,8.25
2023-03-28T10:48:21.418Z,5.33
2023-03-28T10:50:53.466Z,3.00
2023-03-28T10:53:49.325Z,3.00
2023-03-28T10:56:33.637Z,6.33
2023-03-28T10:59:21.846Z,18.75
2023-03-28T11:02:27.837Z,15.00
2023-03-28T11:05:03.985Z,6.00
2023-03-28T11:07:37.506Z,9.00
2023-03-28T11:10:25.005Z,6.00
2023-03-28T11:13:35.415Z,16.50
2023-03-28T11:16:07.362Z,12.00
2023-03-28T11:19:04.308Z,23.50
2023-03-28T11:22:02.407Z,13.75
2023-03-28T11:24:40.162Z,4.67
2023-03-28T11:27:29.054Z,11.00
2023-03-28T11:30:16.012Z,8.00
2023-03-28T11:33:19.391Z,3.00
2023-03-28T11:35:57.112Z,8.33
2023-03-28T11:38:32.286Z,13.50
2023-03-28T11:41:04.419Z,10.00
2023-03-28T11:44:03.103Z,3.00
2023-03-28T11:46:32.181Z,4.00
2023-03-28T11:49:08.234Z,6.00
2023-03-28T11:51:45.760Z,11.33
2023-03-28T11:54:18.890Z,3.00
2023-03-28T11:57:04.127Z,3.00
2023-03-28T11:59:57.609Z,7.00
2023-03-28T12:02:36.766Z,3.00
2023-03-28T12:05:27.173Z,3.00
2023-03-28T12:08:09.234Z,3.00
2023-03-28T12:10:38.267Z,3.00
2023-03-28T12:13:15.828Z,2.00
2023-03-28T12:15:57.431Z,8.00
2023-03-28T12:18:27.211Z,3.00
2023-03-28T12:20:56.292Z,2.00
2023-03-28T12:24:00.032Z,7.33
2023-03-28T12:27:06.904Z,11.50
2023-03-28T12:29:43.331Z,6.00
2023-03-28T12:32:29.962Z,9.00
2023-03-28T12:35:25.121Z,11.00
2023-03-28T12:38:06.835Z,11.00
2023-03-28T12:41:00.661Z,16.33
2023-03-28T12:43:45.014Z,5.33
2023-03-28T12:46:21.415Z,5.67
2023-03-28T12:49:00.878Z,6.00
2023-03-28T12:51:53.873Z,8.33
2023-03-28T12:54:32.008Z,2.00
2023-03-28T12:57:08.108Z,7.00
2023-03-28T13:00:03.179Z,7.00
2023-03-28T13:02:58.682Z,6.33
2023-03-28T13:06:21.116Z,4.67
2023-03-28T13:09:25.911Z,24.00
2023-03-28T13:12:26.642Z,13.67
2023-03-28T13:15:03.027Z,18.50
2023-03-28T13:17:33.037Z,18.00
2023-03-28T13:20:08.780Z,17.00
2023-03-28T13:22:58.194Z,3.67
2023-03-28T13:25:27.768Z,5.67
2023-03-28T13:27:58.250Z,5.33
2023-03-28T13:30:29.389Z,15.75
2023-03-28T13:33:03.447Z,10.67
2023-03-28T13:36:13.252Z,14.00
2023-03-28T13:38:53.503Z,12.00
2023-03-28T13:41:55.384Z,13.33
2023-03-28T13:44:29.864Z,9.33
2023-03-28T13:46:57.450Z,9.00
2023-03-28T13:49:32.224Z,5.33
2023-03-28T13:52:04.811Z,10.00
2023-03-28T13:54:32.147Z,5.67
2023-03-28T13:57:17.710Z,17.00
2023-03-28T13:59:51.851Z,4.00
2023-03-28T14:02:33.309Z,10.67
2023-03-28T14:05:20.125Z,12.33
2023-03-28T14:07:48.077Z,8.33
2023-03-28T14:10:28.227Z,8.00
2023-03-28T14:12:58.718Z,6.33
2023-03-28T14:15:30.492Z,5.00
2023-03-28T14:17:59.674Z,15.33
2023-03-28T14:20:26.837Z,7.00
2023-03-28T14:23:00.401Z,7.67
2023-03-28T14:25:29.662Z,8.00
2023-03-28T14:27:57.386Z,3.00
2023-03-28T14:30:37.267Z,7.33
2023-03-28T14:33:18.669Z,9.00
2023-03-28T14:35:57.727Z,19.00
2023-03-28T14:38:29.044Z,8.00
2023-03-28T14:41:16.005Z,4.00
2023-03-28T14:43:42.888Z,8.33
2023-03-28T14:46:11.238Z,3.67
2023-03-28T14:48:39.297Z,5.67
2023-03-28T14:51:06.877Z,15.00
2023-03-28T14:53:42.512Z,24.25
2023-03-28T14:56:13.267Z,38.75
2023-03-28T14:58:43.944Z,3.50
2023-03-28T15:01:22.873Z,11.50
2023-03-28T15:04:05.530Z,16.75
2023-03-28T15:06:33.858Z,30.50
2023-03-28T15:09:11.654Z,15.00
2023-03-28T15:11:43.477Z,16.25
2023-03-28T15:14:27.307Z,11.50
2023-03-28T15:16:55.967Z,5.75
2023-03-28T15:19:28.989Z,3.50
2023-03-28T15:22:01.260Z,7.75
2023-03-28T15:24:28.912Z,13.25
2023-03-28T15:27:01.718Z,18.50
2023-03-28T15:29:34.000Z,11.00
2023-03-28T15:32:17.317Z,19.00
2023-03-28T15:35:01.103Z,12.50
2023-03-28T15:37:28.331Z,11.00
2023-03-28T15:40:12.439Z,15.00
2023-03-28T15:42:39.741Z,8.25
2023-03-28T15:45:29.148Z,9.25
2023-03-28T15:47:57.259Z,8.00
2023-03-28T15:50:38.704Z,6.75
2023-03-28T15:53:14.943Z,11.00
2023-03-28T15:55:43.727Z,7.75
2023-03-28T15:58:20.495Z,13.00
2023-03-28T16:00:53.166Z,13.25
2023-03-28T16:03:34.118Z,13.50
2023-03-28T16:06:41.313Z,13.25
2023-03-28T16:09:22.951Z,12.50
2023-03-28T16:11:59.459Z,10.00
2023-03-28T16:14:48.890Z,12.50
2023-03-28T16:17:43.400Z,15.50
2023-03-28T16:20:27.322Z,20.25
2023-03-28T16:22:57.588Z,17.25
2023-03-28T16:25:24.670Z,14.00
2023-03-28T16:27:51.495Z,16.25
2023-03-28T16:30:23.321Z,10.00
2023-03-28T16:32:50.286Z,18.75
2023-03-28T16:35:17.326Z,16.00
2023-03-28T16:37:44.233Z,15.25
2023-03-28T16:40:11.682Z,23.75
2023-03-28T16:42:38.769Z,11.00
2023-03-28T16:45:06.887Z,20.50
2023-03-28T16:47:33.882Z,48.50
2023-03-28T16:50:00.856Z,38.00
2023-03-28T16:52:29.703Z,25.00
2023-03-28T16:54:57.125Z,33.25
2023-03-28T16:57:24.272Z,11.25
2023-03-28T16:59:51.409Z,45.25
2023-03-28T17:02:18.579Z,3.75
2023-03-28T17:04:50.996Z,25.75
2023-03-28T17:07:18.359Z,10.50
2023-03-28T17:09:45.208Z,15.50
2023-03-28T17:12:12.275Z,15.00
2023-03-28T17:14:39.413Z,21.00
2023-03-28T17:17:08.134Z,15.00
2023-03-28T17:19:35.456Z,46.00
2023-03-28T17:22:02.677Z,82.75
2023-03-28T17:24:30.109Z,33.00
2023-03-28T17:26:57.281Z,51.25
2023-03-28T17:29:24.817Z,51.50
2023-03-28T17:31:52.752Z,83.75
2023-03-28T17:34:19.962Z,55.75
2023-03-28T17:36:47.224Z,69.75
2023-03-28T17:39:14.331Z,79.00
2023-03-28T17:41:41.844Z,69.50
2023-03-28T17:44:09.316Z,96.75
2023-03-28T17:46:36.845Z,76.50
2023-03-28T17:49:04.188Z,75.00
2023-03-28T17:51:31.138Z,78.25
2023-03-28T17:53:58.583Z,72.00
2023-03-28T17:56:26.050Z,97.75
2023-03-28T17:58:52.894Z,117.75
2023-03-28T18:01:20.375Z,232.50
2023-03-28T18:03:47.594Z,96.75
2023-03-28T18:06:31.315Z,92.50
2023-03-28T18:08:59.401Z,108.00
2023-03-28T18:11:26.911Z,101.50
2023-03-28T18:13:57.158Z,132.50
2023-03-28T18:16:26.723Z,121.00
2023-03-28T18:18:54.346Z,134.50
2023-03-28T18:21:21.925Z,147.25
2023-03-28T18:23:49.348Z,148.00
2023-03-28T18:26:16.624Z,100.00
2023-03-28T18:28:43.644Z,73.25
2023-03-28T18:31:16.870Z,91.00
2023-03-28T18:33:44.953Z,86.25
2023-03-28T18:36:13.486Z,129.00
2023-03-28T18:38:43.502Z,149.00
2023-03-28T18:41:12.851Z,131.75
2023-03-28T18:43:42.169Z,108.75
2023-03-28T18:46:15.801Z,121.00
2023-03-28T18:48:43.798Z,125.75
2023-03-28T18:51:10.742Z,137.25
2023-03-28T18:53:40.464Z,108.75
2023-03-28T18:56:08.595Z,112.75
2023-03-28T18:58:37.160Z,78.75
2023-03-28T19:01:04.944Z,69.50
2023-03-28T19:03:38.604Z,87.25
2023-03-28T19:06:06.600Z,93.50
2023-03-28T19:08:33.845Z,122.00
2023-03-28T19:11:07.700Z,136.00
2023-03-28T19:13:34.712Z,110.75
2023-03-28T19:16:16.028Z,143.75
2023-03-28T19:18:44.668Z,138.25
2023-03-28T19:21:12.211Z,74.25
2023-03-28T19:23:39.879Z,120.00
2023-03-28T19:26:08.345Z,116.50
2023-03-28T19:28:35.772Z,124.25
2023-03-28T19:31:06.953Z,88.75
2023-03-28T19:33:35.656Z,68.50
2023-03-28T19:36:06.166Z,54.25
2023-03-28T19:38:35.689Z,49.50
2023-03-28T19:41:10.428Z,97.00
2023-03-28T19:43:38.879Z,75.00
2023-03-28T19:46:11.307Z,75.50
2023-03-28T19:48:42.278Z,132.00
2023-03-28T19:51:09.557Z,57.50
2023-03-28T19:53:43.229Z,61.25
2023-03-28T19:56:12.140Z,67.00
2023-03-28T19:58:39.105Z,66.75
2023-03-28T20:01:07.064Z,70.50
2023-03-28T20:03:35.031Z,60.75
2023-03-28T20:06:08.256Z,82.50
2023-03-28T20:08:36.219Z,110.25
2023-03-28T20:11:04.853Z,86.25
2023-03-28T20:13:31.857Z,77.50
2023-03-28T20:16:02.134Z,73.00
2023-03-28T20:18:29.624Z,103.00
2023-03-28T20:21:02.505Z,81.00
2023-03-28T20:23:32.615Z,98.50
2023-03-28T20:26:01.653Z,76.00
2023-03-28T20:28:32.545Z,108.75
2023-03-28T20:30:59.706Z,79.25
2023-03-28T20:33:27.100Z,63.50
2023-03-28T20:35:59.149Z,84.00
2023-03-28T20:38:27.359Z,83.00
2023-03-28T20:40:54.328Z,83.75
2023-03-28T20:43:21.610Z,104.25
2023-03-28T20:45:55.490Z,73.00
2023-03-28T20:48:34.574Z,89.25
2023-03-28T20:51:05.799Z,104.75
2023-03-28T20:53:34.879Z,65.25
2023-03-28T20:56:06.622Z,51.00
2023-03-28T20:58:34.675Z,52.50
2023-03-28T21:01:02.596Z,62.50
2023-03-28T21:03:48.601Z,77.00
2023-03-28T21:06:20.497Z,87.00
2023-03-28T21:08:49.822Z,82.75
2023-03-28T21:11:19.376Z,92.75
2023-03-28T21:13:46.294Z,76.25
2023-03-28T21:16:17.416Z,66.50
2023-03-28T21:18:45.762Z,75.75
2023-03-28T21:21:14.684Z,68.50
2023-03-28T21:23:42.643Z,72.75
2023-03-28T21:26:12.453Z,72.75
2023-03-28T21:28:39.437Z,81.25
2023-03-28T21:31:15.668Z,70.50
2023-03-28T21:33:43.136Z,77.00
2023-03-28T21:36:13.100Z,84.25
2023-03-28T21:38:41.091Z,63.75
2023-03-28T21:41:09.041Z,79.25
2023-03-28T21:43:36.313Z,76.25
2023-03-28T21:46:04.021Z,75.50
2023-03-28T21:48:31.806Z,60.50
2023-03-28T21:50:59.876Z,56.00
2023-03-28T21:53:29.386Z,54.00
2023-03-28T21:55:57.060Z,56.75
2023-03-28T21:58:24.104Z,58.25
2023-03-28T22:00:51.116Z,136.75
2023-03-28T22:03:18.753Z,74.75
2023-03-28T22:05:46.401Z,75.00
2023-03-28T22:08:13.906Z,64.50
2023-03-28T22:10:56.649Z,69.00
2023-03-28T22:13:23.998Z,70.25
2023-03-28T22:15:52.462Z,75.00
2023-03-28T22:18:20.650Z,81.75
2023-03-28T22:20:53.369Z,69.25
2023-03-28T22:23:24.043Z,54.50
2023-03-28T22:25:53.050Z,59.50
2023-03-28T22:28:24.541Z,59.25
2023-03-28T22:30:56.307Z,55.25
2023-03-28T22:33:24.204Z,65.75
2023-03-28T22:35:51.778Z,61.25
2023-03-28T22:38:19.597Z,66.75
2023-03-28T22:40:47.628Z,65.75
2023-03-28T22:43:14.984Z,68.75
2023-03-28T22:45:41.996Z,88.00
2023-03-28T22:48:16.171Z,89.75
2023-03-28T22:50:44.403Z,82.50
2023-03-28T22:53:12.505Z,87.50
2023-03-28T22:55:39.355Z,86.25
2023-03-28T22:58:06.323Z,83.25
2023-03-28T23:00:33.340Z,80.00
2023-03-28T23:03:01.673Z,86.00
2023-03-28T23:05:29.106Z,87.75
2023-03-28T23:07:56.101Z,77.25
2023-03-28T23:10:23.211Z,87.00
2023-03-28T23:12:50.168Z,80.25
2023-03-28T23:15:16.987Z,75.00
2023-03-28T23:17:44.491Z,63.50
2023-03-28T23:20:13.136Z,68.25
2023-03-28T23:22:45.167Z,65.50
2023-03-28T23:25:13.123Z,64.00
2023-03-28T23:27:40.627Z,65.25
2023-03-28T23:30:10.103Z,73.25
2023-03-28T23:32:37.569Z,77.50
2023-03-28T23:35:05.779Z,84.25
2023-03-28T23:37:34.408Z,91.00
2023-03-28T23:40:01.532Z,92.00
2023-03-28T23:42:28.523Z,89.00
2023-03-28T23:44:55.414Z,93.00
2023-03-28T23:47:22.351Z,85.50
2023-03-28T23:49:49.157Z,101.75
2023-03-28T23:52:16.477Z,100.75
2023-03-28T23:54:44.264Z,75.50
2023-03-28T23:57:11.467Z,90.50
2023-03-28T23:59:38.434Z,58.00
